createdAt,value
2019-05-02T00:04:19.925Z,54.17
2019-05-02T00:09:21.092Z,54.67
2019-05-02T00:14:25.211Z,56.83
2019-05-02T00:19:27.124Z,63.17
2019-05-02T00:24:28.923Z,60.50
2019-05-02T00:29:30.851Z,60.20
2019-05-02T00:34:32.963Z,67.20
2019-05-02T00:39:34.865Z,61.80
2019-05-02T00:44:36.908Z,65.80
2019-05-02T00:49:38.846Z,72.03
2019-05-02T00:54:40.775Z,69.70
2019-05-02T00:59:43.597Z,76.67
2019-05-02T01:04:46.539Z,77.90
2019-05-02T01:09:48.452Z,82.17
2019-05-02T01:14:50.633Z,86.53
2019-05-02T01:19:52.708Z,87.37
2019-05-02T01:24:54.900Z,87.60
2019-05-02T01:30:31.226Z,89.67
2019-05-02T01:35:42.136Z,94.00
2019-05-02T01:40:48.206Z,92.67
2019-05-02T01:45:52.607Z,93.90
2019-05-02T01:50:54.494Z,101.37
2019-05-02T01:55:57.281Z,96.87
2019-05-02T02:01:01.611Z,89.13
2019-05-02T02:06:08.274Z,100.27
2019-05-02T02:11:09.406Z,109.20
2019-05-02T02:16:11.549Z,112.27
2019-05-02T02:21:32.500Z,124.80
2019-05-02T02:26:35.265Z,127.93
2019-05-02T02:31:39.945Z,128.33
2019-05-02T02:36:40.967Z,135.07
2019-05-02T02:41:45.251Z,134.93
2019-05-02T02:46:46.822Z,154.37
2019-05-02T02:51:48.710Z,156.97
2019-05-02T02:56:55.577Z,150.60
2019-05-02T03:02:09.117Z,177.67
2019-05-02T03:07:01.453Z,168.87
2019-05-02T03:12:21.961Z,182.73
2019-05-02T03:17:26.588Z,187.20
2019-05-02T03:22:28.047Z,174.27
2019-05-02T03:27:37.243Z,198.87
2019-05-02T03:32:37.319Z,178.20
2019-05-02T03:37:44.681Z,195.63
2019-05-02T03:42:47.293Z,204.20
2019-05-02T03:47:47.639Z,216.70
2019-05-02T03:52:50.789Z,200.37
2019-05-02T03:57:52.923Z,207.83
2019-05-02T04:03:00.527Z,212.67
2019-05-02T04:07:58.627Z,209.80
2019-05-02T04:13:00.520Z,218.07
2019-05-02T04:18:08.599Z,217.63
2019-05-02T04:23:07.461Z,225.93
2019-05-02T04:28:12.032Z,216.87
2019-05-02T04:33:13.233Z,222.07
2019-05-02T04:38:21.297Z,211.17
2019-05-02T04:43:18.973Z,205.80
2019-05-02T04:48:20.803Z,186.37
2019-05-02T04:53:25.778Z,209.60
2019-05-02T04:58:29.650Z,203.17
2019-05-02T05:03:30.467Z,206.80
2019-05-02T05:08:32.382Z,184.67
2019-05-02T05:13:34.324Z,167.57
2019-05-02T05:18:37.870Z,186.83
2019-05-02T05:24:07.606Z,150.33
2019-05-02T05:29:09.113Z,145.70
2019-05-02T05:34:11.909Z,137.90
2019-05-02T05:39:13.868Z,136.60
2019-05-02T05:44:17.890Z,142.37
2019-05-02T05:49:21.780Z,139.70
2019-05-02T05:54:23.258Z,142.33
2019-05-02T05:59:34.144Z,139.13
2019-05-02T06:04:36.086Z,138.93
2019-05-02T06:09:42.714Z,131.33
2019-05-02T06:14:46.471Z,137.97
2019-05-02T06:19:53.532Z,134.93
2019-05-02T06:24:52.544Z,104.87
2019-05-02T06:29:56.103Z,78.37
2019-05-02T06:35:00.144Z,75.73
2019-05-02T06:40:03.269Z,80.17
2019-05-02T06:45:09.272Z,79.30
2019-05-02T06:50:11.883Z,85.60
2019-05-02T06:55:13.813Z,77.03
2019-05-02T07:00:15.830Z,78.93
2019-05-02T07:05:17.690Z,82.80
2019-05-02T07:10:23.536Z,84.70
2019-05-02T07:15:52.311Z,74.13
2019-05-02T07:20:54.085Z,70.13
2019-05-02T07:25:56.017Z,65.67
2019-05-02T07:30:58.363Z,70.07
2019-05-02T07:36:01.362Z,71.07
2019-05-02T07:41:03.875Z,79.20
2019-05-02T07:46:05.760Z,74.83
2019-05-02T07:51:07.639Z,76.87
2019-05-02T07:56:12.581Z,77.97
2019-05-02T08:01:15.303Z,77.40
2019-05-02T08:06:19.019Z,75.73
2019-05-02T08:11:21.058Z,78.30
2019-05-02T08:16:27.392Z,71.63
2019-05-02T08:21:32.622Z,76.77
2019-05-02T08:26:53.502Z,89.80
2019-05-02T08:31:55.834Z,81.77
2019-05-02T08:36:58.951Z,88.77
2019-05-02T08:42:01.902Z,85.17
2019-05-02T08:47:03.807Z,81.57
2019-05-02T08:52:07.502Z,82.20
2019-05-02T08:57:09.616Z,88.73
2019-05-02T09:02:11.503Z,84.30
2019-05-02T09:07:14.922Z,91.23
2019-05-02T09:12:19.846Z,96.53
2019-05-02T09:17:33.199Z,98.20
2019-05-02T09:22:24.283Z,97.43
2019-05-02T09:27:27.830Z,95.97
2019-05-02T09:32:29.817Z,89.00
2019-05-02T09:37:32.181Z,97.67
2019-05-02T09:42:34.069Z,97.07
2019-05-02T09:47:53.172Z,101.43
2019-05-02T09:52:44.133Z,99.00
2019-05-02T09:57:45.336Z,105.90
2019-05-02T10:02:47.239Z,119.93
2019-05-02T10:07:49.060Z,115.30
2019-05-02T10:12:52.136Z,113.13
2019-05-02T10:18:07.224Z,132.37
2019-05-02T10:22:57.938Z,124.60
2019-05-02T10:28:02.161Z,121.77
2019-05-02T10:33:03.936Z,132.57
2019-05-02T10:38:09.410Z,140.67
2019-05-02T10:43:11.744Z,141.70
2019-05-02T10:48:24.834Z,150.40
2019-05-02T10:53:17.802Z,171.67
2019-05-02T10:58:26.197Z,190.53
2019-05-02T11:03:42.625Z,324.70
2019-05-02T11:08:45.837Z,300.10
2019-05-02T11:14:11.984Z,268.03
2019-05-02T11:19:23.397Z,240.40
2019-05-02T11:24:26.338Z,170.60
2019-05-02T11:29:28.243Z,174.47
2019-05-02T11:34:30.169Z,185.40
2019-05-02T11:39:42.997Z,169.60
2019-05-02T11:44:36.028Z,176.33
2019-05-02T11:49:37.981Z,144.63
2019-05-02T11:54:44.711Z,140.07
2019-05-02T11:59:45.485Z,128.70
2019-05-02T12:04:54.350Z,143.13
2019-05-02T12:09:56.859Z,132.40
2019-05-02T12:14:58.608Z,109.77
2019-05-02T12:20:02.038Z,100.77
2019-05-02T12:25:04.582Z,109.43
2019-05-02T12:30:06.465Z,96.13
2019-05-02T12:35:11.635Z,90.10
2019-05-02T12:40:13.462Z,77.13
2019-05-02T12:45:16.001Z,79.67
2019-05-02T12:50:17.886Z,76.20
2019-05-02T12:55:22.079Z,68.80
2019-05-02T13:00:23.814Z,58.37
2019-05-02T13:05:25.714Z,51.87
2019-05-02T13:10:35.942Z,46.27
2019-05-02T13:15:37.943Z,53.00
2019-05-02T13:20:41.758Z,48.27
2019-05-02T13:25:43.956Z,41.30
2019-05-02T13:31:23.467Z,34.53
2019-05-02T13:36:42.251Z,36.77
2019-05-02T13:41:44.100Z,50.27
2019-05-02T13:46:48.512Z,53.77
2019-05-02T13:51:52.123Z,67.80
2019-05-02T13:56:54.091Z,66.33
2019-05-02T14:01:55.987Z,84.67
2019-05-02T14:06:57.886Z,71.00
2019-05-02T14:12:04.965Z,67.20
2019-05-02T14:17:07.021Z,67.43
2019-05-02T14:22:08.797Z,63.30
2019-05-02T14:27:12.871Z,53.23
2019-05-02T14:32:23.385Z,52.20
2019-05-02T14:37:18.346Z,46.77
2019-05-02T14:42:22.159Z,47.30
2019-05-02T14:47:26.278Z,51.70
2019-05-02T14:52:28.050Z,49.30
2019-05-02T14:57:32.721Z,48.27
2019-05-02T15:02:44.938Z,50.03
2019-05-02T15:07:46.495Z,59.77
2019-05-02T15:12:51.634Z,54.43
2019-05-02T15:17:53.179Z,48.20
2019-05-02T15:22:55.304Z,37.63
2019-05-02T15:28:00.070Z,28.00
2019-05-02T15:33:09.554Z,31.27
2019-05-02T15:38:17.588Z,21.50
2019-05-02T15:43:15.636Z,23.20
2019-05-02T15:48:25.548Z,22.97
2019-05-02T15:53:28.283Z,20.27
2019-05-02T15:58:30.075Z,17.10
2019-05-02T16:03:45.752Z,18.40
2019-05-02T16:08:45.072Z,16.47
2019-05-02T16:13:52.493Z,15.20
2019-05-02T16:18:52.901Z,14.30
2019-05-02T16:24:15.139Z,10.50
2019-05-02T16:29:23.318Z,14.43
2019-05-02T16:34:27.470Z,9.13
2019-05-02T16:39:27.272Z,10.57
2019-05-02T16:44:29.217Z,11.67
2019-05-02T16:49:35.541Z,12.67
2019-05-02T16:54:41.881Z,9.70
2019-05-02T16:59:42.608Z,10.93
2019-05-02T17:04:44.623Z,6.07
2019-05-02T17:10:08.602Z,8.07
2019-05-02T17:15:31.166Z,7.87
2019-05-02T17:20:31.967Z,10.77
2019-05-02T17:25:34.229Z,12.73
2019-05-02T17:30:39.074Z,9.70
2019-05-02T17:35:41.675Z,14.67
2019-05-02T17:40:46.541Z,8.07
2019-05-02T17:45:48.420Z,10.20
2019-05-02T17:51:22.772Z,10.97
2019-05-02T17:56:27.520Z,11.27
2019-05-02T18:01:36.367Z,8.07
2019-05-02T18:06:38.327Z,13.70
2019-05-02T18:11:40.234Z,8.03
2019-05-02T18:16:42.111Z,9.83
2019-05-02T18:21:44.053Z,9.87
2019-05-02T18:26:46.230Z,10.87
2019-05-02T18:31:48.046Z,15.30
2019-05-02T18:36:57.537Z,11.50
2019-05-02T18:42:00.667Z,12.20
2019-05-02T18:47:02.887Z,16.57
2019-05-02T18:52:04.795Z,8.13
2019-05-02T18:57:06.715Z,6.43
2019-05-02T19:02:08.614Z,8.60
2019-05-02T19:07:15.854Z,10.20
2019-05-02T19:12:22.435Z,9.37
2019-05-02T19:17:21.955Z,7.80
2019-05-02T19:22:24.205Z,10.67
2019-05-02T19:27:45.982Z,12.03
2019-05-02T19:32:47.893Z,11.80
2019-05-02T19:37:49.896Z,13.33
2019-05-02T19:42:52.713Z,14.00
2019-05-02T19:47:57.643Z,8.20
2019-05-02T19:53:02.015Z,9.67
2019-05-02T19:58:06.444Z,6.93
2019-05-02T20:03:06.930Z,19.40
2019-05-02T20:08:09.731Z,15.47
2019-05-02T20:13:12.099Z,19.93
2019-05-02T20:18:14.366Z,10.20
2019-05-02T20:23:18.710Z,11.37
2019-05-02T20:28:21.807Z,14.27
2019-05-02T20:33:23.853Z,15.77
2019-05-02T20:38:25.962Z,21.40
2019-05-02T20:43:27.958Z,12.00
2019-05-02T20:48:32.034Z,13.93
2019-05-02T20:53:34.301Z,19.03
2019-05-02T20:58:36.389Z,17.30
2019-05-02T21:03:38.320Z,8.63
2019-05-02T21:09:21.777Z,18.97
2019-05-02T21:14:23.786Z,16.03
2019-05-02T21:19:28.613Z,12.83
2019-05-02T21:24:32.716Z,13.70
2019-05-02T21:29:34.549Z,16.43
2019-05-02T21:34:36.645Z,19.90
2019-05-02T21:39:42.547Z,17.10
2019-05-02T21:44:44.673Z,20.03
2019-05-02T21:50:06.249Z,14.13
2019-05-02T21:55:15.705Z,16.93
2019-05-02T22:00:39.657Z,15.53
2019-05-02T22:05:42.420Z,15.53
2019-05-02T22:10:44.385Z,12.07
2019-05-02T22:15:46.321Z,16.13
2019-05-02T22:20:48.245Z,13.10
2019-05-02T22:25:52.648Z,11.23
2019-05-02T22:30:54.785Z,13.40
2019-05-02T22:35:58.231Z,16.23
2019-05-02T22:41:01.671Z,20.87
2019-05-02T22:46:09.888Z,15.70
2019-05-02T22:51:14.943Z,14.90
2019-05-02T22:56:16.645Z,14.83
2019-05-02T23:01:18.656Z,16.97
2019-05-02T23:06:20.641Z,17.83
2019-05-02T23:11:24.490Z,18.57
2019-05-02T23:16:26.599Z,18.40
2019-05-02T23:21:28.460Z,16.93
2019-05-02T23:27:01.956Z,20.63
2019-05-02T23:32:04.106Z,15.97
2019-05-02T23:37:07.137Z,17.30
2019-05-02T23:42:09.070Z,20.43
2019-05-02T23:47:11.761Z,16.40
2019-05-02T23:52:14.010Z,17.27
2019-05-02T23:57:16.226Z,15.53
